Time;durP1;ratioP1;P1;durP2;ratioP2;P2;SDS_P1;SDS_P2;PMS_P1;PMS_P2;Temp;Humidity;BMP_temperature;BMP_pressure;BME280_temperature;BME280_humidity;BME280_pressure;Samples;Min_cycle;Max_cycle;Signal;HPM_P1;HPM_P2
2021/12/20 00:01:35;;;;;;;0.52;0.52;;;;;;;;;;4996935;28;20034;-32
2021/12/20 00:04:02;;;;;;;0.85;0.40;;;;;;;;;;4996837;28;20042;-30
2021/12/20 00:06:28;;;;;;;0.45;0.45;;;;;;;;;;4996664;28;20069;-32
2021/12/20 00:08:54;;;;;;;0.63;0.50;;;;;;;;;;4996795;28;20030;-31
2021/12/20 00:11:20;;;;;;;0.52;0.43;;;;;;;;;;4996753;28;20033;-31
2021/12/20 00:13:47;;;;;;;1.42;0.50;;;;;;;;;;4996856;28;20037;-30
2021/12/20 00:16:13;;;;;;;0.38;0.38;;;;;;;;;;4996581;28;20450;-32
2021/12/20 00:18:42;;;;;;;0.50;0.40;;;;;;;;;;4996563;28;20096;-33
2021/12/20 00:21:08;;;;;;;0.70;0.45;;;;;;;;;;4996456;28;20030;-31
2021/12/20 00:23:34;;;;;;;0.30;0.30;;;;;;;;;;4996683;28;20034;-32
2021/12/20 00:26:01;;;;;;;0.52;0.40;;;;;;;;;;4996592;28;20049;-30
2021/12/20 00:28:27;;;;;;;0.70;0.60;;;;;;;;;;4996908;28;20026;-31
2021/12/20 00:30:53;;;;;;;0.70;0.50;;;;;;;;;;4996321;28;20022;-33
2021/12/20 00:33:19;;;;;;;0.40;0.40;;;;;;;;;;4996145;28;20084;-31
2021/12/20 00:35:47;;;;;;;0.35;0.30;;;;;;;;;;4996807;28;20026;-32
2021/12/20 00:40:58;;;;;;;0.90;0.50;;;;;;;;;;4996754;28;20532;-32
2021/12/20 00:43:25;;;;;;;0.60;0.60;;;;;;;;;;4996566;28;20042;-31
2021/12/20 00:45:51;;;;;;;0.40;0.40;;;;;;;;;;4978880;28;20034;-31
2021/12/20 00:48:18;;;;;;;0.88;0.50;;;;;;;;;;4996334;28;20022;-32
2021/12/20 00:50:44;;;;;;;0.80;0.40;;;;;;;;;;4996030;28;20018;-32
2021/12/20 00:53:11;;;;;;;0.98;0.65;;;;;;;;;;4995860;28;20173;-32
2021/12/20 00:55:38;;;;;;;0.40;0.40;;;;;;;;;;4995922;28;20109;-31
2021/12/20 00:58:04;;;;;;;0.63;0.30;;;;;;;;;;4995941;28;20101;-31
2021/12/20 01:00:32;;;;;;;0.38;0.30;;;;;;;;;;4995896;28;20030;-31
2021/12/20 01:02:59;;;;;;;0.63;0.50;;;;;;;;;;4995995;28;20031;-30
2021/12/20 01:05:26;;;;;;;1.15;0.50;;;;;;;;;;4995441;28;20077;-29
2021/12/20 01:07:55;;;;;;;0.82;0.45;;;;;;;;;;4995672;28;20029;-29
2021/12/20 01:10:22;;;;;;;0.45;0.43;;;;;;;;;;4995887;28;20361;-29
2021/12/20 01:12:50;;;;;;;0.70;0.50;;;;;;;;;;4995828;28;20080;-29
2021/12/20 01:15:24;;;;;;;1.10;0.90;;;;;;;;;;4996276;28;20026;-29
2021/12/20 01:17:51;;;;;;;0.50;0.50;;;;;;;;;;4995822;28;20504;-29
2021/12/20 01:20:17;;;;;;;0.30;0.30;;;;;;;;;;4996085;28;20050;-31
2021/12/20 01:22:45;;;;;;;0.68;0.40;;;;;;;;;;4995476;28;20053;-31
2021/12/20 01:25:11;;;;;;;0.75;0.60;;;;;;;;;;4995354;28;20041;-31
2021/12/20 01:27:37;;;;;;;0.40;0.40;;;;;;;;;;4995413;28;20113;-31
2021/12/20 01:30:04;;;;;;;0.43;0.43;;;;;;;;;;4995676;28;20025;-33
2021/12/20 01:32:31;;;;;;;0.70;0.52;;;;;;;;;;4995358;28;20033;-31
2021/12/20 01:34:57;;;;;;;0.52;0.50;;;;;;;;;;4995319;28;20034;-31
2021/12/20 01:37:23;;;;;;;0.40;0.40;;;;;;;;;;4995351;28;20034;-32
2021/12/20 01:39:49;;;;;;;0.43;0.43;;;;;;;;;;4995291;28;20113;-32
2021/12/20 01:42:17;;;;;;;0.50;0.50;;;;;;;;;;4995162;28;20032;-31
2021/12/20 01:44:43;;;;;;;0.40;0.40;;;;;;;;;;4995133;28;20516;-30
2021/12/20 01:47:10;;;;;;;0.47;0.45;;;;;;;;;;4995209;28;20027;-34
2021/12/20 01:49:44;;;;;;;1.77;0.50;;;;;;;;;;4995103;28;20045;-32
2021/12/20 01:52:14;;;;;;;0.57;0.57;;;;;;;;;;4995378;28;20058;-31
2021/12/20 01:54:41;;;;;;;0.57;0.52;;;;;;;;;;4995065;28;20033;-30
2021/12/20 01:57:07;;;;;;;0.30;0.30;;;;;;;;;;4995157;28;20410;-32
2021/12/20 01:59:33;;;;;;;0.85;0.60;;;;;;;;;;4998063;28;20022;-33
2021/12/20 02:01:59;;;;;;;0.63;0.57;;;;;;;;;;4999252;28;20034;-31
2021/12/20 02:04:27;;;;;;;0.50;0.50;;;;;;;;;;4999048;28;20496;-34
2021/12/20 02:06:53;;;;;;;0.35;0.30;;;;;;;;;;4998750;28;20050;-31
2021/12/20 02:09:20;;;;;;;0.63;0.50;;;;;;;;;;4981862;28;20478;-31
2021/12/20 02:11:49;;;;;;;0.40;0.40;;;;;;;;;;4999155;28;20083;-31
2021/12/20 02:14:16;;;;;;;0.75;0.40;;;;;;;;;;4998835;28;20034;-31
2021/12/20 02:16:43;;;;;;;0.50;0.25;;;;;;;;;;4998893;28;20540;-32
2021/12/20 02:19:11;;;;;;;0.50;0.50;;;;;;;;;;4998727;28;20454;-31
2021/12/20 02:21:38;;;;;;;1.15;0.70;;;;;;;;;;4998767;28;20088;-31
2021/12/20 02:24:05;;;;;;;1.65;0.50;;;;;;;;;;4981691;28;20034;-30
2021/12/20 02:26:31;;;;;;;0.50;0.50;;;;;;;;;;4998635;28;20033;-32
2021/12/20 02:29:03;;;;;;;0.50;0.50;;;;;;;;;;4998914;28;20090;-32
2021/12/20 02:37:27;;;;;;;0.40;0.40;;;;;;;;;;4998841;28;20041;-31
2021/12/20 02:39:54;;;;;;;0.57;0.35;;;;;;;;;;4998750;28;20110;-32
2021/12/20 02:42:25;;;;;;;0.50;0.50;;;;;;;;;;4998322;28;20038;-31
2021/12/20 02:45:05;;;;;;;0.45;0.45;;;;;;;;;;4998582;28;20030;-30
2021/12/20 02:47:31;;;;;;;0.57;0.43;;;;;;;;;;4998313;28;20037;-31
2021/12/20 02:49:58;;;;;;;0.40;0.40;;;;;;;;;;4998244;28;20030;-31
2021/12/20 02:52:25;;;;;;;1.42;0.60;;;;;;;;;;4998137;28;20023;-31
2021/12/20 02:54:52;;;;;;;1.45;0.70;;;;;;;;;;4998404;28;20030;-32
2021/12/20 02:57:19;;;;;;;0.60;0.60;;;;;;;;;;4998372;28;20101;-31
2021/12/20 02:59:45;;;;;;;0.73;0.57;;;;;;;;;;4998562;28;20026;-30
2021/12/20 03:02:11;;;;;;;0.30;0.30;;;;;;;;;;4997929;28;20108;-32
2021/12/20 03:04:39;;;;;;;0.40;0.40;;;;;;;;;;4997828;28;20026;-32
2021/12/20 03:07:07;;;;;;;1.30;0.57;;;;;;;;;;4997829;28;20050;-31
2021/12/20 03:09:37;;;;;;;0.47;0.43;;;;;;;;;;4997013;28;20366;-32
2021/12/20 03:12:04;;;;;;;0.50;0.38;;;;;;;;;;4997651;28;20362;-31
2021/12/20 03:14:36;;;;;;;0.43;0.43;;;;;;;;;;4998361;28;20342;-31
2021/12/20 03:17:02;;;;;;;1.05;0.50;;;;;;;;;;4998396;28;20432;-31
2021/12/20 03:19:29;;;;;;;0.52;0.52;;;;;;;;;;4998056;28;20033;-30
2021/12/20 03:21:55;;;;;;;0.43;0.43;;;;;;;;;;4997896;28;20049;-31
2021/12/20 03:24:22;;;;;;;0.93;0.55;;;;;;;;;;4997704;28;20375;-32
2021/12/20 03:26:48;;;;;;;0.47;0.47;;;;;;;;;;4997526;28;20033;-31
2021/12/20 03:29:14;;;;;;;0.50;0.40;;;;;;;;;;4997842;28;20022;-30
2021/12/20 03:31:41;;;;;;;0.65;0.43;;;;;;;;;;4997537;28;20473;-33
2021/12/20 03:34:08;;;;;;;0.57;0.55;;;;;;;;;;4997494;28;20046;-30
2021/12/20 03:36:34;;;;;;;0.65;0.65;;;;;;;;;;4997703;28;20030;-36
2021/12/20 03:39:01;;;;;;;0.40;0.32;;;;;;;;;;4997366;28;20457;-31
2021/12/20 03:41:28;;;;;;;1.80;0.60;;;;;;;;;;4997354;28;20081;-31
2021/12/20 03:43:54;;;;;;;0.52;0.50;;;;;;;;;;4997220;28;20031;-31
2021/12/20 03:46:21;;;;;;;1.00;0.47;;;;;;;;;;4997199;28;20109;-32
2021/12/20 03:48:47;;;;;;;0.40;0.40;;;;;;;;;;4997522;28;20081;-31
2021/12/20 03:51:13;;;;;;;0.63;0.40;;;;;;;;;;4997709;28;20101;-33
2021/12/20 03:53:39;;;;;;;0.65;0.50;;;;;;;;;;4997278;28;20030;-31
2021/12/20 03:56:06;;;;;;;1.42;0.57;;;;;;;;;;4997326;28;20038;-35
2021/12/20 03:58:33;;;;;;;1.73;0.60;;;;;;;;;;4997285;28;20117;-32
2021/12/20 04:01:00;;;;;;;1.27;0.47;;;;;;;;;;4996971;28;20034;-32
2021/12/20 04:03:30;;;;;;;0.80;0.52;;;;;;;;;;4997128;28;20409;-33
2021/12/20 04:05:56;;;;;;;0.80;0.70;;;;;;;;;;4996615;28;20042;-33
2021/12/20 04:08:23;;;;;;;1.27;0.45;;;;;;;;;;4997088;28;20365;-31
2021/12/20 04:10:49;;;;;;;0.50;0.40;;;;;;;;;;4997022;28;20066;-31
2021/12/20 04:13:15;;;;;;;0.38;0.38;;;;;;;;;;4996702;28;20365;-31
2021/12/20 04:15:42;;;;;;;0.40;0.40;;;;;;;;;;4997407;28;20054;-32
2021/12/20 04:18:08;;;;;;;1.35;1.13;;;;;;;;;;4996874;28;20026;-31
2021/12/20 04:20:34;;;;;;;0.60;0.50;;;;;;;;;;4996533;28;20038;-31
2021/12/20 04:23:01;;;;;;;0.50;0.45;;;;;;;;;;4996233;28;20361;-31
2021/12/20 04:25:27;;;;;;;0.50;0.50;;;;;;;;;;4996635;28;20045;-32
2021/12/20 04:27:53;;;;;;;0.57;0.57;;;;;;;;;;4996342;28;20022;-33
2021/12/20 04:30:19;;;;;;;0.40;0.40;;;;;;;;;;4996351;28;20027;-30
2021/12/20 04:32:46;;;;;;;1.13;0.57;;;;;;;;;;4996543;28;20425;-32
2021/12/20 04:35:13;;;;;;;0.80;0.50;;;;;;;;;;4996251;28;20084;-31
2021/12/20 04:37:41;;;;;;;0.63;0.60;;;;;;;;;;4996220;28;20041;-32
2021/12/20 04:40:12;;;;;;;0.70;0.57;;;;;;;;;;4996402;28;20390;-31
2021/12/20 04:42:38;;;;;;;0.40;0.40;;;;;;;;;;4996069;28;20034;-30
2021/12/20 04:45:05;;;;;;;0.93;0.45;;;;;;;;;;4978919;28;20034;-33
2021/12/20 04:47:31;;;;;;;0.47;0.45;;;;;;;;;;4996863;28;20112;-30
2021/12/20 04:49:57;;;;;;;0.30;0.30;;;;;;;;;;4995934;28;20385;-30
2021/12/20 04:52:24;;;;;;;0.40;0.40;;;;;;;;;;4995976;28;20093;-32
2021/12/20 04:54:50;;;;;;;0.55;0.55;;;;;;;;;;4995833;28;20026;-30
2021/12/20 04:57:17;;;;;;;0.50;0.43;;;;;;;;;;4996171;28;20130;-31
2021/12/20 04:59:43;;;;;;;0.32;0.32;;;;;;;;;;4996116;28;20049;-32
2021/12/20 05:02:09;;;;;;;0.40;0.40;;;;;;;;;;4995838;28;20389;-33
2021/12/20 05:04:35;;;;;;;0.30;0.30;;;;;;;;;;4996006;28;20030;-32
2021/12/20 05:07:03;;;;;;;0.30;0.30;;;;;;;;;;4995457;28;20046;-33
2021/12/20 05:09:36;;;;;;;0.52;0.32;;;;;;;;;;4995689;28;20026;-31
2021/12/20 05:12:10;;;;;;;0.40;0.40;;;;;;;;;;4995880;28;20438;-31
2021/12/20 05:14:38;;;;;;;0.65;0.40;;;;;;;;;;4995481;28;20461;-31
2021/12/20 05:17:05;;;;;;;0.90;0.50;;;;;;;;;;4995643;28;20034;-30
2021/12/20 05:19:31;;;;;;;0.40;0.40;;;;;;;;;;4995703;28;20109;-29
2021/12/20 05:21:57;;;;;;;4.75;0.70;;;;;;;;;;4995501;28;20037;-29
2021/12/20 05:24:23;;;;;;;4.32;0.85;;;;;;;;;;4995367;28;20462;-31
2021/12/20 05:26:50;;;;;;;3.50;0.95;;;;;;;;;;4995195;28;20497;-31
2021/12/20 05:29:16;;;;;;;3.70;1.40;;;;;;;;;;4995259;28;20023;-34
2021/12/20 05:31:42;;;;;;;12.77;0.80;;;;;;;;;;4995156;28;20100;-33
2021/12/20 05:34:08;;;;;;;3.67;0.80;;;;;;;;;;4977347;28;20030;-32
2021/12/20 05:36:35;;;;;;;1.92;0.98;;;;;;;;;;4995257;28;20509;-31
2021/12/20 05:39:02;;;;;;;2.47;0.47;;;;;;;;;;4995437;28;20037;-31
2021/12/20 05:41:28;;;;;;;3.72;0.50;;;;;;;;;;4995277;28;20038;-32
2021/12/20 05:43:54;;;;;;;4.00;0.60;;;;;;;;;;4995615;28;20038;-31
2021/12/20 05:46:20;;;;;;;0.88;0.68;;;;;;;;;;4977912;28;20030;-31
2021/12/20 05:48:46;;;;;;;4.57;0.80;;;;;;;;;;4995597;28;20038;-32
2021/12/20 05:51:13;;;;;;;3.65;0.50;;;;;;;;;;4995263;28;20026;-32
2021/12/20 05:53:39;;;;;;;1.70;0.60;;;;;;;;;;4994979;28;20168;-33
2021/12/20 05:56:05;;;;;;;1.58;0.77;;;;;;;;;;4977920;28;20061;-31
2021/12/20 05:58:32;;;;;;;5.90;0.90;;;;;;;;;;4994963;28;20039;-34
2021/12/20 06:03:41;;;;;;;7.32;0.70;;;;;;;;;;5158557;23;20054;-30
2021/12/20 06:06:08;;;;;;;13.23;0.80;;;;;;;;;;4975693;28;20477;-30
2021/12/20 06:08:34;;;;;;;2.58;0.50;;;;;;;;;;4975624;28;20326;-29
2021/12/20 06:11:01;;;;;;;2.95;0.77;;;;;;;;;;4975524;28;20438;-30
2021/12/20 06:13:27;;;;;;;1.90;1.55;;;;;;;;;;4975389;28;20089;-30
2021/12/20 06:15:53;;;;;;;2.13;0.60;;;;;;;;;;4975452;28;20038;-30
2021/12/20 06:18:19;;;;;;;2.88;0.60;;;;;;;;;;4958410;28;20043;-30
2021/12/20 06:20:46;;;;;;;4.93;1.10;;;;;;;;;;4975878;28;20339;-30
2021/12/20 06:23:12;;;;;;;10.93;0.73;;;;;;;;;;4975547;28;20365;-30
2021/12/20 06:25:39;;;;;;;6.00;0.80;;;;;;;;;;4975300;28;20130;-30
2021/12/20 06:28:08;;;;;;;7.22;0.82;;;;;;;;;;4975875;28;20053;-30
2021/12/20 06:30:34;;;;;;;16.90;2.70;;;;;;;;;;4975192;28;20031;-30
2021/12/20 06:33:00;;;;;;;8.65;1.10;;;;;;;;;;4975244;28;20027;-31
2021/12/20 06:35:26;;;;;;;12.48;1.30;;;;;;;;;;4975352;28;20046;-30
2021/12/20 06:38:00;;;;;;;20.33;4.63;;;;;;;;;;4975344;28;20102;-31
2021/12/20 06:40:27;;;;;;;10.23;1.58;;;;;;;;;;4975470;28;20343;-31
2021/12/20 06:42:53;;;;;;;7.35;1.13;;;;;;;;;;4975159;28;20050;-31
2021/12/20 06:45:20;;;;;;;8.40;1.77;;;;;;;;;;4960357;28;20038;-30
2021/12/20 06:47:46;;;;;;;8.50;0.98;;;;;;;;;;4978997;28;20089;-31
2021/12/20 06:50:13;;;;;;;7.85;1.65;;;;;;;;;;4978827;28;20034;-30
2021/12/20 06:52:39;;;;;;;24.02;1.85;;;;;;;;;;4978585;28;20054;-31
2021/12/20 06:55:05;;;;;;;15.30;1.77;;;;;;;;;;4978505;28;20450;-31
2021/12/20 06:57:32;;;;;;;16.40;1.77;;;;;;;;;;4960989;28;20056;-30
2021/12/20 07:00:00;;;;;;;18.42;2.35;;;;;;;;;;4978568;28;20489;-30
2021/12/20 07:02:27;;;;;;;10.48;1.20;;;;;;;;;;4978014;28;20035;-31
2021/12/20 07:04:53;;;;;;;12.45;1.52;;;;;;;;;;4978180;28;20113;-31
2021/12/20 07:07:20;;;;;;;15.48;1.52;;;;;;;;;;4978514;28;20031;-31
2021/12/20 07:09:46;;;;;;;22.45;1.92;;;;;;;;;;4977919;28;20105;-31
2021/12/20 07:12:12;;;;;;;13.15;1.40;;;;;;;;;;4978023;28;20026;-31
2021/12/20 07:14:40;;;;;;;6.85;0.90;;;;;;;;;;4961363;28;20037;-31
2021/12/20 07:17:06;;;;;;;13.60;1.40;;;;;;;;;;4960943;28;20450;-30
2021/12/20 07:19:33;;;;;;;20.20;1.73;;;;;;;;;;4977712;28;20466;-31
2021/12/20 07:21:59;;;;;;;12.35;1.80;;;;;;;;;;4977279;28;20109;-30
2021/12/20 07:24:25;;;;;;;18.45;1.60;;;;;;;;;;4978097;28;20031;-31
2021/12/20 07:26:52;;;;;;;23.63;1.70;;;;;;;;;;4960786;28;20074;-30
2021/12/20 07:29:18;;;;;;;12.73;2.15;;;;;;;;;;4977550;28;20397;-31
2021/12/20 07:31:45;;;;;;;9.80;1.55;;;;;;;;;;4977723;28;20335;-31
2021/12/20 07:34:12;;;;;;;22.10;1.88;;;;;;;;;;4977696;28;20033;-30
2021/12/20 07:36:38;;;;;;;22.08;1.67;;;;;;;;;;4977377;28;20109;-30
2021/12/20 07:39:05;;;;;;;12.48;1.45;;;;;;;;;;4977290;28;20031;-30
2021/12/20 07:41:32;;;;;;;17.35;2.00;;;;;;;;;;4976880;28;20110;-30
2021/12/20 07:43:58;;;;;;;6.32;1.05;;;;;;;;;;4976657;28;20034;-29
2021/12/20 07:46:24;;;;;;;11.88;1.70;;;;;;;;;;4976767;28;20034;-30
2021/12/20 07:48:51;;;;;;;19.65;1.38;;;;;;;;;;4960110;28;20351;-30
2021/12/20 07:51:18;;;;;;;10.30;1.67;;;;;;;;;;4976925;28;20413;-31
2021/12/20 07:53:44;;;;;;;15.93;2.30;;;;;;;;;;4977069;28;20030;-29
2021/12/20 07:56:12;;;;;;;11.25;1.23;;;;;;;;;;4976445;28;20023;-31
2021/12/20 07:58:39;;;;;;;16.38;1.60;;;;;;;;;;4977376;28;20511;-30
2021/12/20 08:01:06;;;;;;;23.55;3.70;;;;;;;;;;4977223;28;20027;-32
2021/12/20 08:03:34;;;;;;;21.48;1.52;;;;;;;;;;4976782;28;20101;-31
2021/12/20 08:06:00;;;;;;;14.10;1.50;;;;;;;;;;4976933;28;20042;-32
2021/12/20 08:08:27;;;;;;;16.23;2.28;;;;;;;;;;4959752;28;20054;-32
2021/12/20 08:10:54;;;;;;;19.90;1.98;;;;;;;;;;4976941;28;20077;-32
2021/12/20 08:13:20;;;;;;;14.60;1.60;;;;;;;;;;4976626;28;20035;-32
2021/12/20 08:15:46;;;;;;;20.77;2.20;;;;;;;;;;4976656;28;20137;-31
2021/12/20 08:18:13;;;;;;;17.02;3.55;;;;;;;;;;4976765;28;20033;-31
2021/12/20 08:20:39;;;;;;;25.30;2.53;;;;;;;;;;4976390;28;20030;-31
2021/12/20 08:23:05;;;;;;;16.63;2.58;;;;;;;;;;4959276;28;20113;-31
2021/12/20 08:25:32;;;;;;;18.63;2.53;;;;;;;;;;4976346;28;20041;-31
2021/12/20 08:27:58;;;;;;;23.27;2.30;;;;;;;;;;4976057;28;20027;-31
2021/12/20 08:30:25;;;;;;;16.35;1.95;;;;;;;;;;4976172;28;20034;-30
2021/12/20 08:32:51;;;;;;;17.77;3.17;;;;;;;;;;4976140;28;20023;-31
2021/12/20 08:35:18;;;;;;;35.30;2.88;;;;;;;;;;4976283;28;20065;-31
2021/12/20 08:37:45;;;;;;;16.67;2.40;;;;;;;;;;4959578;28;20038;-31
2021/12/20 08:40:13;;;;;;;21.73;4.45;;;;;;;;;;4958983;28;20361;-31
2021/12/20 08:42:40;;;;;;;22.88;2.33;;;;;;;;;;4976110;28;20389;-36
2021/12/20 08:45:07;;;;;;;22.58;1.65;;;;;;;;;;4976026;28;20035;-31
2021/12/20 08:47:34;;;;;;;14.15;1.83;;;;;;;;;;4976222;28;20041;-31
2021/12/20 08:50:04;;;;;;;27.08;3.22;;;;;;;;;;4975881;28;20023;-31
2021/12/20 08:52:30;;;;;;;24.92;2.30;;;;;;;;;;4975928;28;20358;-31
2021/12/20 08:54:57;;;;;;;25.52;3.58;;;;;;;;;;4975883;28;20030;-31
2021/12/20 08:57:23;;;;;;;22.30;3.70;;;;;;;;;;4975892;28;20033;-31
2021/12/20 08:59:49;;;;;;;30.02;2.83;;;;;;;;;;4975585;28;20126;-31
2021/12/20 09:02:16;;;;;;;29.08;3.95;;;;;;;;;;4958305;28;20026;-32
2021/12/20 09:04:42;;;;;;;38.65;2.58;;;;;;;;;;4975914;28;20050;-31
2021/12/20 09:07:15;;;;;;;31.52;2.25;;;;;;;;;;4975716;28;20031;-31
2021/12/20 09:09:44;;;;;;;16.88;2.92;;;;;;;;;;4975398;28;20027;-30
2021/12/20 09:12:10;;;;;;;34.40;2.50;;;;;;;;;;4976240;28;20027;-31
2021/12/20 09:14:37;;;;;;;22.10;3.13;;;;;;;;;;4975876;28;20476;-31
2021/12/20 09:17:04;;;;;;;20.02;2.70;;;;;;;;;;4975865;28;20041;-31
2021/12/20 09:19:30;;;;;;;22.30;2.40;;;;;;;;;;4975688;28;20462;-31
2021/12/20 09:21:57;;;;;;;20.88;2.20;;;;;;;;;;4975812;28;22106;-30
2021/12/20 09:24:23;;;;;;;17.23;2.65;;;;;;;;;;4958372;28;20030;-31
2021/12/20 09:26:49;;;;;;;24.85;2.10;;;;;;;;;;4975662;28;20035;-30
2021/12/20 09:29:16;;;;;;;19.33;2.42;;;;;;;;;;4975447;28;20045;-30
2021/12/20 09:31:44;;;;;;;19.00;2.95;;;;;;;;;;4975611;28;20023;-29
2021/12/20 09:34:10;;;;;;;30.55;4.15;;;;;;;;;;4975345;28;20023;-31
2021/12/20 09:36:37;;;;;;;27.75;2.95;;;;;;;;;;4958392;28;20097;-30
2021/12/20 09:39:07;;;;;;;30.75;3.70;;;;;;;;;;4975594;28;20035;-31
2021/12/20 09:44:01;;;;;;;23.70;3.42;;;;;;;;;;4975305;28;20366;-31
2021/12/20 09:46:29;;;;;;;21.25;2.45;;;;;;;;;;4975164;28;20042;-31
2021/12/20 09:48:55;;;;;;;23.80;2.17;;;;;;;;;;4975415;28;20041;-30
2021/12/20 09:51:21;;;;;;;22.45;3.03;;;;;;;;;;4975358;28;20031;-30
2021/12/20 09:53:48;;;;;;;35.03;2.58;;;;;;;;;;4975177;28;20050;-30
2021/12/20 09:56:14;;;;;;;31.65;2.95;;;;;;;;;;4958161;28;20066;-30
2021/12/20 09:58:42;;;;;;;28.92;3.72;;;;;;;;;;4975109;28;20106;-31
2021/12/20 10:01:10;;;;;;;17.05;2.53;;;;;;;;;;4958103;28;20466;-29
2021/12/20 10:03:36;;;;;;;20.35;6.18;;;;;;;;;;4974899;28;20047;-30
2021/12/20 10:06:03;;;;;;;34.72;3.20;;;;;;;;;;4975011;28;20045;-30
2021/12/20 10:08:35;;;;;;;25.15;3.90;;;;;;;;;;4975465;28;20438;-31
2021/12/20 10:11:05;;;;;;;21.48;3.42;;;;;;;;;;4975099;28;20027;-30
2021/12/20 10:13:33;;;;;;;27.73;3.63;;;;;;;;;;4975229;28;20026;-30
2021/12/20 10:16:01;;;;;;;24.35;2.60;;;;;;;;;;4975237;28;20058;-30
2021/12/20 10:18:28;;;;;;;20.42;2.55;;;;;;;;;;4975054;28;20026;-30
2021/12/20 10:20:55;;;;;;;32.13;3.22;;;;;;;;;;4978422;28;20030;-30
2021/12/20 10:23:24;;;;;;;29.17;3.17;;;;;;;;;;4978745;28;20031;-31
2021/12/20 10:25:52;;;;;;;24.23;3.67;;;;;;;;;;4978779;28;20038;-32
2021/12/20 10:28:24;;;;;;;32.53;3.08;;;;;;;;;;4978923;28;20401;-30
2021/12/20 10:30:52;;;;;;;23.23;2.72;;;;;;;;;;4978819;28;20031;-30
2021/12/20 10:33:22;;;;;;;31.15;4.18;;;;;;;;;;4978977;28;20121;-30
2021/12/20 10:36:13;;;;;;;29.57;3.63;;;;;;;;;;4978564;28;20585;-30
2021/12/20 10:38:41;;;;;;;14.55;2.78;;;;;;;;;;4950313;28;20753;-30
2021/12/20 10:41:07;;;;;;;28.77;4.25;;;;;;;;;;4960921;28;20094;-30
2021/12/20 10:43:40;;;;;;;34.00;3.75;;;;;;;;;;4977903;28;20504;-30
2021/12/20 10:46:26;;;;;;;35.38;3.17;;;;;;;;;;4977896;28;20038;-30
2021/12/20 10:48:59;;;;;;;31.45;4.80;;;;;;;;;;4978789;28;20046;-31
2021/12/20 10:51:27;;;;;;;33.97;3.70;;;;;;;;;;4978360;28;20057;-30
2021/12/20 10:53:59;;;;;;;23.50;4.43;;;;;;;;;;4978172;28;20039;-30
2021/12/20 10:56:26;;;;;;;22.30;2.72;;;;;;;;;;4960900;28;20427;-30
2021/12/20 10:58:53;;;;;;;31.27;2.97;;;;;;;;;;4978196;28;20450;-29
2021/12/20 11:01:48;;;;;;;24.88;3.47;;;;;;;;;;4978202;28;20035;-30
2021/12/20 11:04:21;;;;;;;18.23;2.30;;;;;;;;;;4977612;28;20081;-30
2021/12/20 11:09:36;;;;;;;29.27;2.60;;;;;;;;;;4978360;28;20038;-30
2021/12/20 11:12:04;;;;;;;20.55;2.78;;;;;;;;;;4977899;28;20042;-31
2021/12/20 11:14:34;;;;;;;20.80;3.58;;;;;;;;;;4977668;28;20034;-31
2021/12/20 11:17:02;;;;;;;28.43;5.67;;;;;;;;;;4977831;28;20397;-33
2021/12/20 11:19:30;;;;;;;28.00;3.83;;;;;;;;;;4977493;28;20258;-31
2021/12/20 11:22:07;;;;;;;29.30;3.28;;;;;;;;;;4977410;28;20027;-31
2021/12/20 11:24:38;;;;;;;27.30;5.10;;;;;;;;;;4977370;28;20469;-30
2021/12/20 11:27:07;;;;;;;21.95;2.92;;;;;;;;;;4960332;28;20055;-30
2021/12/20 11:29:34;;;;;;;29.70;3.33;;;;;;;;;;4960314;28;20138;-31
2021/12/20 11:32:00;;;;;;;17.45;3.63;;;;;;;;;;4959100;28;20073;-31
2021/12/20 11:34:27;;;;;;;23.13;3.47;;;;;;;;;;4977350;28;20039;-31
2021/12/20 11:36:54;;;;;;;24.08;3.03;;;;;;;;;;4977537;28;20354;-31
2021/12/20 11:39:20;;;;;;;27.17;4.00;;;;;;;;;;4977460;28;20038;-31
2021/12/20 11:41:46;;;;;;;22.67;3.28;;;;;;;;;;4977167;28;20146;-31
2021/12/20 11:44:15;;;;;;;24.73;3.88;;;;;;;;;;4977396;28;20027;-30
2021/12/20 11:46:47;;;;;;;44.53;4.72;;;;;;;;;;4960483;28;20026;-30
2021/12/20 11:49:18;;;;;;;38.63;5.28;;;;;;;;;;4977287;28;20090;-31
2021/12/20 11:51:57;;;;;;;22.55;2.85;;;;;;;;;;4977153;28;20357;-31
2021/12/20 11:54:41;;;;;;;21.02;4.10;;;;;;;;;;4976995;28;20022;-31
2021/12/20 11:57:28;;;;;;;27.80;4.43;;;;;;;;;;4976781;28;20047;-30
2021/12/20 11:59:56;;;;;;;26.55;2.78;;;;;;;;;;4976709;28;20038;-30
2021/12/20 12:02:33;;;;;;;36.88;4.15;;;;;;;;;;4976777;28;20046;-30
2021/12/20 12:05:02;;;;;;;26.73;3.38;;;;;;;;;;4976580;28;20043;-32
2021/12/20 12:07:30;;;;;;;22.80;3.33;;;;;;;;;;4976733;28;20350;-32
2021/12/20 12:09:58;;;;;;;25.63;4.88;;;;;;;;;;4959520;28;20045;-30
2021/12/20 12:12:26;;;;;;;33.17;4.32;;;;;;;;;;4976421;28;20423;-31
2021/12/20 12:15:02;;;;;;;32.58;4.55;;;;;;;;;;4977118;28;20023;-30
2021/12/20 12:17:48;;;;;;;28.23;3.50;;;;;;;;;;4976408;28;20089;-30
2021/12/20 12:20:15;;;;;;;26.83;3.42;;;;;;;;;;4976753;28;20114;-30
2021/12/20 12:22:44;;;;;;;18.45;3.67;;;;;;;;;;4976399;28;20081;-30
2021/12/20 12:25:15;;;;;;;19.25;2.72;;;;;;;;;;4959068;28;20118;-30
2021/12/20 12:27:43;;;;;;;25.48;3.38;;;;;;;;;;4976684;28;20058;-30
2021/12/20 12:30:13;;;;;;;19.08;2.95;;;;;;;;;;4976668;28;20045;-30
2021/12/20 12:32:59;;;;;;;21.83;2.78;;;;;;;;;;4976185;28;20478;-29
2021/12/20 12:35:41;;;;;;;25.25;3.35;;;;;;;;;;4975715;28;20046;-33
2021/12/20 12:38:16;;;;;;;20.15;3.22;;;;;;;;;;4976455;28;20417;-30
2021/12/20 12:40:42;;;;;;;32.28;3.28;;;;;;;;;;4959498;28;20030;-30
2021/12/20 12:43:09;;;;;;;20.77;3.03;;;;;;;;;;4975593;28;20023;-29
2021/12/20 12:45:55;;;;;;;22.83;3.55;;;;;;;;;;4975824;28;20138;-30
2021/12/20 12:48:43;;;;;;;21.15;3.90;;;;;;;;;;4976326;28;20113;-31
2021/12/20 12:51:19;;;;;;;26.27;4.13;;;;;;;;;;4976111;28;20108;-31
2021/12/20 12:53:53;;;;;;;39.08;3.47;;;;;;;;;;4976260;28;20035;-30
2021/12/20 12:56:25;;;;;;;32.67;4.05;;;;;;;;;;4971460;28;20030;-30
2021/12/20 12:59:10;;;;;;;30.90;3.45;;;;;;;;;;4976243;28;20038;-30
2021/12/20 13:01:38;;;;;;;27.13;3.80;;;;;;;;;;4975942;28;20109;-31
2021/12/20 13:04:04;;;;;;;28.95;4.25;;;;;;;;;;4958472;28;20076;-30
2021/12/20 13:06:30;;;;;;;22.83;2.63;;;;;;;;;;4975890;28;20074;-32
2021/12/20 13:08:59;;;;;;;45.80;4.60;;;;;;;;;;4975660;28;20033;-31
2021/12/20 13:11:26;;;;;;;24.30;3.38;;;;;;;;;;4975509;28;20036;-31
2021/12/20 13:14:09;;;;;;;31.08;3.45;;;;;;;;;;4975432;28;20042;-31
2021/12/20 13:16:37;;;;;;;22.30;3.58;;;;;;;;;;4975569;28;20110;-31
2021/12/20 13:19:05;;;;;;;50.03;6.10;;;;;;;;;;4975666;28;20027;-30
2021/12/20 13:21:50;;;;;;;43.38;4.75;;;;;;;;;;4975384;28;20041;-31
2021/12/20 13:24:17;;;;;;;24.60;4.05;;;;;;;;;;4975514;28;20074;-32
2021/12/20 13:26:43;;;;;;;26.00;3.38;;;;;;;;;;4976302;28;20038;-31
2021/12/20 13:29:17;;;;;;;48.05;5.30;;;;;;;;;;4975632;28;20074;-31
2021/12/20 13:31:44;;;;;;;25.42;3.60;;;;;;;;;;4975543;28;20118;-31
2021/12/20 13:34:14;;;;;;;25.70;4.00;;;;;;;;;;4975730;28;20038;-31
2021/12/20 13:36:50;;;;;;;26.88;3.33;;;;;;;;;;4943075;28;20031;-31
2021/12/20 13:39:16;;;;;;;22.23;3.33;;;;;;;;;;4975865;28;20097;-31
2021/12/20 13:41:42;;;;;;;35.63;3.78;;;;;;;;;;4975880;28;20031;-31
2021/12/20 13:44:15;;;;;;;25.98;3.53;;;;;;;;;;4975707;28;20037;-31
2021/12/20 13:46:46;;;;;;;21.65;3.80;;;;;;;;;;4975620;28;20031;-31
2021/12/20 13:49:22;;;;;;;44.95;4.55;;;;;;;;;;4975265;28;20026;-32
2021/12/20 13:51:57;;;;;;;38.83;3.92;;;;;;;;;;4975179;28;20039;-32
2021/12/20 13:54:44;;;;;;;38.72;4.43;;;;;;;;;;4960800;28;20031;-32
2021/12/20 13:57:16;;;;;;;25.77;3.95;;;;;;;;;;4981696;28;20047;-32
2021/12/20 13:59:53;;;;;;;26.70;3.53;;;;;;;;;;4981592;28;20031;-32
2021/12/20 14:02:20;;;;;;;27.05;4.90;;;;;;;;;;4981310;28;20030;-31
2021/12/20 14:04:47;;;;;;;51.20;5.13;;;;;;;;;;4981884;28;20133;-31
2021/12/20 14:07:26;;;;;;;60.55;4.63;;;;;;;;;;4981261;28;20027;-31
2021/12/20 14:10:03;;;;;;;41.90;5.28;;;;;;;;;;4981281;28;20042;-32
2021/12/20 14:12:36;;;;;;;45.78;4.38;;;;;;;;;;4981641;28;20047;-30
2021/12/20 14:15:11;;;;;;;31.23;3.20;;;;;;;;;;4981637;28;20034;-30
2021/12/20 14:17:51;;;;;;;46.85;5.75;;;;;;;;;;4981167;28;20105;-30
2021/12/20 14:20:18;;;;;;;45.83;5.88;;;;;;;;;;4981300;28;20362;-31
2021/12/20 14:23:00;;;;;;;31.63;5.55;;;;;;;;;;4964158;28;20041;-32
2021/12/20 14:25:31;;;;;;;49.08;4.53;;;;;;;;;;4981617;28;20109;-31
2021/12/20 14:28:01;;;;;;;50.78;4.78;;;;;;;;;;4981583;28;20143;-30
2021/12/20 14:30:28;;;;;;;36.67;5.73;;;;;;;;;;4981765;28;20450;-30
2021/12/20 14:32:54;;;;;;;37.28;5.00;;;;;;;;;;4964241;28;20378;-31
2021/12/20 14:35:32;;;;;;;34.15;5.15;;;;;;;;;;4981646;28;20070;-31
2021/12/20 14:38:00;;;;;;;45.95;5.07;;;;;;;;;;4981482;28;20023;-32
2021/12/20 14:40:44;;;;;;;39.47;4.72;;;;;;;;;;4981774;28;20027;-33
2021/12/20 14:43:14;;;;;;;32.72;4.30;;;;;;;;;;4981537;28;20366;-31
2021/12/20 14:45:42;;;;;;;37.72;4.22;;;;;;;;;;4981474;28;20034;-31
2021/12/20 14:48:21;;;;;;;35.10;4.45;;;;;;;;;;4964909;28;20340;-31
2021/12/20 14:50:48;;;;;;;42.67;4.90;;;;;;;;;;4981196;28;20019;-32
2021/12/20 14:53:19;;;;;;;29.95;4.35;;;;;;;;;;4981096;28;20347;-31
2021/12/20 14:55:45;;;;;;;41.67;5.57;;;;;;;;;;4981684;28;20034;-31
2021/12/20 14:58:12;;;;;;;44.33;4.88;;;;;;;;;;4981286;28;20038;-31
2021/12/20 15:00:40;;;;;;;38.72;4.55;;;;;;;;;;4948372;28;20505;-31